Time;durP1;ratioP1;P1;durP2;ratioP2;P2;SDS_P1;SDS_P2;PMS_P1;PMS_P2;Temp;Humidity;BMP_temperature;BMP_pressure;BME280_temperature;BME280_humidity;BME280_pressure;Samples;Min_cycle;Max_cycle;Signal;HPM_P1;HPM_P2
2021/11/23 00:01:20;;;;;;;24.52;14.82;;;;;;;;;;5027978;28;20025;-74
2021/11/23 00:03:46;;;;;;;24.23;14.52;;;;;;;;;;5022468;28;20044;-72
2021/11/23 00:06:12;;;;;;;23.20;14.70;;;;;;;;;;5022125;28;20416;-71
2021/11/23 00:08:37;;;;;;;24.35;14.02;;;;;;;;;;5027699;28;20053;-72
2021/11/23 00:11:03;;;;;;;23.33;13.45;;;;;;;;;;5026863;28;20559;-73
2021/11/23 00:13:29;;;;;;;23.80;13.13;;;;;;;;;;5020462;28;20030;-72
2021/11/23 00:15:54;;;;;;;22.80;13.70;;;;;;;;;;5027331;28;20091;-72
2021/11/23 00:18:19;;;;;;;23.63;13.55;;;;;;;;;;5022997;28;20053;-72
2021/11/23 00:20:45;;;;;;;23.80;14.02;;;;;;;;;;5019474;28;20021;-71
2021/11/23 00:23:11;;;;;;;21.83;13.65;;;;;;;;;;5021582;28;20104;-71
2021/11/23 00:25:36;;;;;;;25.55;13.48;;;;;;;;;;5021236;28;20121;-71
2021/11/23 00:28:01;;;;;;;22.70;13.65;;;;;;;;;;5027730;28;20056;-72
2021/11/23 00:30:27;;;;;;;24.58;14.38;;;;;;;;;;5025974;28;20120;-71
2021/11/23 00:32:53;;;;;;;22.73;13.02;;;;;;;;;;5026345;28;20029;-71
2021/11/23 00:35:19;;;;;;;22.58;13.18;;;;;;;;;;5027439;28;20125;-71
2021/11/23 00:37:47;;;;;;;24.90;14.23;;;;;;;;;;5024061;28;20116;-73
2021/11/23 00:40:13;;;;;;;25.33;12.95;;;;;;;;;;5020294;28;20038;-73
2021/11/23 00:42:38;;;;;;;24.17;13.00;;;;;;;;;;5026623;28;20032;-71
2021/11/23 00:45:04;;;;;;;24.05;13.48;;;;;;;;;;5027556;28;20493;-71
2021/11/23 00:47:30;;;;;;;22.17;13.77;;;;;;;;;;5028458;28;20083;-72
2021/11/23 00:49:55;;;;;;;22.20;13.88;;;;;;;;;;5034930;28;20037;-72
2021/11/23 00:52:20;;;;;;;24.15;13.77;;;;;;;;;;5016909;28;20469;-72
2021/11/23 00:54:46;;;;;;;22.02;13.10;;;;;;;;;;5027505;28;20048;-71
2021/11/23 00:57:11;;;;;;;22.70;12.73;;;;;;;;;;5026158;28;20029;-72
2021/11/23 00:59:38;;;;;;;23.48;13.35;;;;;;;;;;5022882;28;20021;-71
2021/11/23 01:02:03;;;;;;;23.30;12.48;;;;;;;;;;5030321;28;20106;-72
2021/11/23 01:04:29;;;;;;;20.92;12.25;;;;;;;;;;5027838;28;20120;-71
2021/11/23 01:06:54;;;;;;;21.98;12.63;;;;;;;;;;5024951;28;20057;-71
2021/11/23 01:09:19;;;;;;;21.55;11.93;;;;;;;;;;5021012;28;20157;-70
2021/11/23 01:11:45;;;;;;;22.48;12.90;;;;;;;;;;5020061;28;20029;-71
2021/11/23 01:14:10;;;;;;;23.77;12.50;;;;;;;;;;5017638;28;20054;-71
2021/11/23 01:16:35;;;;;;;25.30;13.68;;;;;;;;;;5025627;28;20119;-71
2021/11/23 01:19:00;;;;;;;24.58;13.43;;;;;;;;;;5017397;28;20044;-71
2021/11/23 01:21:26;;;;;;;24.13;13.65;;;;;;;;;;5025375;28;20025;-71
2021/11/23 01:23:53;;;;;;;21.70;12.45;;;;;;;;;;5025065;28;20033;-70
2021/11/23 01:26:18;;;;;;;21.20;12.52;;;;;;;;;;5032929;28;20024;-71
2021/11/23 01:28:44;;;;;;;20.25;12.35;;;;;;;;;;5026403;28;20049;-72
2021/11/23 01:31:09;;;;;;;24.08;12.90;;;;;;;;;;5032350;28;20017;-71
2021/11/23 01:33:34;;;;;;;23.60;11.95;;;;;;;;;;5030707;28;20068;-70
2021/11/23 01:35:59;;;;;;;22.20;12.32;;;;;;;;;;5025935;28;20030;-70
2021/11/23 01:38:25;;;;;;;23.67;12.57;;;;;;;;;;5026831;28;20385;-71
2021/11/23 01:40:50;;;;;;;21.42;11.60;;;;;;;;;;5025996;28;20025;-70
2021/11/23 01:43:15;;;;;;;20.27;11.75;;;;;;;;;;5027665;28;20038;-70
2021/11/23 01:45:41;;;;;;;21.40;11.02;;;;;;;;;;5023549;28;20135;-71
2021/11/23 01:48:07;;;;;;;21.40;12.25;;;;;;;;;;5017548;28;20036;-70
2021/11/23 01:50:33;;;;;;;20.27;11.65;;;;;;;;;;5027195;28;20044;-72
2021/11/23 01:53:00;;;;;;;20.52;11.80;;;;;;;;;;5022903;28;20044;-71
2021/11/23 01:55:25;;;;;;;23.02;12.38;;;;;;;;;;5022866;28;20026;-71
2021/11/23 01:57:51;;;;;;;23.10;12.18;;;;;;;;;;5028860;28;20047;-71
2021/11/23 02:00:17;;;;;;;22.30;12.50;;;;;;;;;;5022497;28;20038;-71
2021/11/23 02:02:43;;;;;;;22.45;12.80;;;;;;;;;;5030203;28;20029;-71
2021/11/23 02:05:08;;;;;;;19.98;11.95;;;;;;;;;;5030957;28;20334;-71
2021/11/23 02:07:34;;;;;;;22.27;11.90;;;;;;;;;;5033320;28;20052;-72
2021/11/23 02:09:59;;;;;;;22.45;12.10;;;;;;;;;;5030199;28;20117;-70
2021/11/23 02:12:25;;;;;;;23.65;12.38;;;;;;;;;;5033302;28;20045;-71
2021/11/23 02:14:51;;;;;;;21.90;11.75;;;;;;;;;;5023697;28;20049;-70
2021/11/23 02:17:16;;;;;;;20.45;11.88;;;;;;;;;;5017134;28;20495;-71
2021/11/23 02:19:52;;;;;;;22.80;11.82;;;;;;;;;;5021056;28;20044;-71
2021/11/23 02:22:18;;;;;;;21.38;11.98;;;;;;;;;;5026358;28;20030;-70
2021/11/23 02:24:43;;;;;;;22.63;11.82;;;;;;;;;;5026644;28;20029;-71
2021/11/23 02:27:08;;;;;;;18.63;11.05;;;;;;;;;;5023742;28;20108;-71
2021/11/23 02:29:33;;;;;;;21.02;11.02;;;;;;;;;;5027661;28;20065;-71
2021/11/23 02:31:58;;;;;;;20.45;11.38;;;;;;;;;;5026161;28;20057;-73
2021/11/23 02:34:24;;;;;;;21.58;10.80;;;;;;;;;;5023389;28;20116;-70
2021/11/23 02:36:49;;;;;;;20.27;11.63;;;;;;;;;;5029881;28;20751;-70
2021/11/23 02:39:14;;;;;;;20.02;10.65;;;;;;;;;;5015756;28;20033;-70
2021/11/23 02:41:40;;;;;;;19.23;10.93;;;;;;;;;;5029554;28;20021;-70
2021/11/23 02:44:07;;;;;;;20.45;10.65;;;;;;;;;;5031050;28;20032;-70
2021/11/23 02:46:32;;;;;;;21.40;12.05;;;;;;;;;;5029068;28;20018;-73
2021/11/23 02:48:57;;;;;;;18.90;11.32;;;;;;;;;;5027905;28;20033;-71
2021/11/23 02:51:22;;;;;;;20.60;11.77;;;;;;;;;;5028733;28;20072;-71
2021/11/23 02:53:49;;;;;;;17.88;10.90;;;;;;;;;;5025859;28;20041;-71
2021/11/23 02:56:15;;;;;;;22.42;12.55;;;;;;;;;;5023045;28;20140;-72
2021/11/23 02:58:46;;;;;;;22.90;12.07;;;;;;;;;;5031224;28;20060;-72
2021/11/23 03:01:11;;;;;;;22.45;11.55;;;;;;;;;;5029887;28;20037;-71
2021/11/23 03:03:36;;;;;;;20.10;11.65;;;;;;;;;;5022997;28;20022;-70
2021/11/23 03:06:01;;;;;;;18.17;10.88;;;;;;;;;;5029982;28;20389;-70
2021/11/23 03:08:27;;;;;;;22.48;12.43;;;;;;;;;;5028078;28;20064;-71
2021/11/23 03:10:52;;;;;;;19.92;11.65;;;;;;;;;;5026362;28;20092;-71
2021/11/23 03:13:17;;;;;;;23.23;12.80;;;;;;;;;;5024017;28;20025;-71
2021/11/23 03:15:43;;;;;;;19.63;11.05;;;;;;;;;;5028775;28;20116;-71
2021/11/23 03:18:09;;;;;;;17.90;10.52;;;;;;;;;;5028766;28;20021;-71
2021/11/23 03:20:36;;;;;;;20.55;11.40;;;;;;;;;;5029235;28;20120;-70
2021/11/23 03:23:01;;;;;;;22.42;12.15;;;;;;;;;;5023415;28;20021;-72
2021/11/23 03:25:26;;;;;;;20.77;11.30;;;;;;;;;;5028978;28;20027;-71
2021/11/23 03:27:52;;;;;;;21.13;12.93;;;;;;;;;;5026496;28;20060;-71
2021/11/23 03:30:21;;;;;;;21.60;11.85;;;;;;;;;;5029681;28;20037;-72
2021/11/23 03:32:46;;;;;;;22.33;12.73;;;;;;;;;;5027572;28;20603;-71
2021/11/23 03:35:13;;;;;;;21.85;12.60;;;;;;;;;;5029002;28;20072;-73
2021/11/23 03:37:38;;;;;;;20.50;12.23;;;;;;;;;;5025015;28;20109;-72
2021/11/23 03:40:04;;;;;;;21.63;12.32;;;;;;;;;;5028631;28;20048;-72
2021/11/23 03:42:29;;;;;;;28.05;12.38;;;;;;;;;;5027236;28;20029;-72
2021/11/23 03:44:58;;;;;;;21.13;12.45;;;;;;;;;;5023844;28;20017;-72
2021/11/23 03:47:23;;;;;;;21.55;12.52;;;;;;;;;;5022119;28;20026;-72
2021/11/23 03:49:49;;;;;;;21.98;12.27;;;;;;;;;;5023659;28;20424;-71
2021/11/23 03:52:14;;;;;;;23.08;12.43;;;;;;;;;;5018302;28;20022;-71
2021/11/23 03:54:39;;;;;;;20.95;11.80;;;;;;;;;;5023947;28;20029;-70
2021/11/23 03:57:05;;;;;;;20.63;11.63;;;;;;;;;;5029616;28;20040;-70
2021/11/23 03:59:30;;;;;;;23.35;13.10;;;;;;;;;;5028482;28;20025;-71
2021/11/23 04:01:56;;;;;;;25.30;13.65;;;;;;;;;;5021330;28;20026;-71
2021/11/23 04:04:21;;;;;;;21.80;12.85;;;;;;;;;;5028369;28;20021;-70
2021/11/23 04:06:46;;;;;;;23.45;13.13;;;;;;;;;;5021838;28;20045;-71
2021/11/23 04:09:12;;;;;;;23.27;13.25;;;;;;;;;;5028832;28;20025;-71
2021/11/23 04:11:37;;;;;;;25.88;14.38;;;;;;;;;;5025076;28;20103;-69
2021/11/23 04:14:03;;;;;;;23.95;14.00;;;;;;;;;;5023710;28;20025;-71
2021/11/23 04:16:28;;;;;;;24.65;13.40;;;;;;;;;;5018935;28;20037;-70
2021/11/23 04:18:53;;;;;;;23.48;13.52;;;;;;;;;;5026338;28;20469;-70
2021/11/23 04:21:19;;;;;;;24.55;13.85;;;;;;;;;;5027668;28;20469;-71
2021/11/23 04:23:44;;;;;;;25.15;14.02;;;;;;;;;;5022314;28;20030;-71
2021/11/23 04:26:09;;;;;;;22.98;13.60;;;;;;;;;;5024132;28;20025;-71
2021/11/23 04:28:35;;;;;;;23.73;13.38;;;;;;;;;;5020945;28;20035;-71
2021/11/23 04:31:00;;;;;;;26.20;14.25;;;;;;;;;;5026932;28;20116;-70
2021/11/23 04:33:25;;;;;;;24.88;14.05;;;;;;;;;;5026723;28;20180;-69
2021/11/23 04:35:51;;;;;;;26.17;14.30;;;;;;;;;;5023309;28;20033;-71
2021/11/23 04:38:16;;;;;;;25.92;13.73;;;;;;;;;;5025490;28;20014;-71
2021/11/23 04:40:41;;;;;;;25.10;14.38;;;;;;;;;;5017523;28;20022;-72
2021/11/23 04:43:07;;;;;;;29.10;15.45;;;;;;;;;;5026223;28;20049;-72
2021/11/23 04:45:33;;;;;;;27.10;14.32;;;;;;;;;;5028048;28;20428;-72
2021/11/23 04:47:59;;;;;;;26.05;15.07;;;;;;;;;;5028030;28;20131;-72
2021/11/23 04:50:24;;;;;;;25.95;14.68;;;;;;;;;;5023607;28;20045;-71
2021/11/23 04:52:49;;;;;;;26.35;14.50;;;;;;;;;;5022001;28;20389;-72
2021/11/23 04:55:15;;;;;;;24.80;13.10;;;;;;;;;;5026304;28;20144;-70
2021/11/23 04:57:40;;;;;;;25.20;13.88;;;;;;;;;;5026700;28;20531;-70
2021/11/23 05:00:07;;;;;;;23.98;13.43;;;;;;;;;;5028152;28;20025;-71
2021/11/23 05:02:33;;;;;;;25.25;12.80;;;;;;;;;;5019276;28;20025;-71
2021/11/23 05:04:58;;;;;;;25.85;13.95;;;;;;;;;;5018160;28;20166;-71
2021/11/23 05:07:23;;;;;;;25.23;13.13;;;;;;;;;;5025739;28;20046;-71
2021/11/23 05:09:48;;;;;;;29.02;13.68;;;;;;;;;;5027142;28;20088;-71
2021/11/23 05:12:14;;;;;;;28.83;15.02;;;;;;;;;;5021903;28;20022;-71
2021/11/23 05:14:39;;;;;;;25.65;13.57;;;;;;;;;;5021433;28;20448;-72
2021/11/23 05:17:04;;;;;;;26.25;14.13;;;;;;;;;;5027637;28;20377;-72
2021/11/23 05:19:29;;;;;;;24.50;13.73;;;;;;;;;;5023010;28;20025;-71
2021/11/23 05:21:55;;;;;;;27.88;14.43;;;;;;;;;;5021642;28;20025;-72
2021/11/23 05:24:20;;;;;;;27.77;14.45;;;;;;;;;;5020838;28;20117;-71
2021/11/23 05:26:45;;;;;;;23.92;12.60;;;;;;;;;;5025105;28;20035;-71
2021/11/23 05:29:11;;;;;;;24.95;13.18;;;;;;;;;;5021783;28;20029;-72
2021/11/23 05:31:36;;;;;;;26.25;14.05;;;;;;;;;;5031066;28;20025;-71
2021/11/23 05:34:01;;;;;;;24.83;14.63;;;;;;;;;;5031723;28;20033;-70
2021/11/23 05:36:27;;;;;;;26.00;13.60;;;;;;;;;;5023229;28;20049;-70
2021/11/23 05:38:52;;;;;;;26.08;14.15;;;;;;;;;;5027984;28;20106;-70
2021/11/23 05:41:17;;;;;;;23.55;13.27;;;;;;;;;;5031048;28;20021;-72
2021/11/23 05:43:42;;;;;;;29.27;14.60;;;;;;;;;;5029615;28;20160;-71
2021/11/23 05:46:08;;;;;;;27.67;14.05;;;;;;;;;;5030482;28;20173;-71
2021/11/23 05:48:33;;;;;;;25.25;14.05;;;;;;;;;;5021838;28;20021;-71
2021/11/23 05:51:03;;;;;;;24.92;13.15;;;;;;;;;;5023004;28;20029;-70
2021/11/23 05:53:34;;;;;;;24.52;13.02;;;;;;;;;;5025441;28;20013;-71
2021/11/23 05:55:59;;;;;;;24.02;11.95;;;;;;;;;;5024306;28;20029;-70
2021/11/23 05:58:25;;;;;;;26.65;13.73;;;;;;;;;;5027153;28;20040;-68
2021/11/23 06:00:50;;;;;;;23.30;12.65;;;;;;;;;;5026455;28;20394;-70
2021/11/23 06:03:16;;;;;;;21.90;12.38;;;;;;;;;;5025720;28;20021;-70
2021/11/23 06:05:41;;;;;;;24.63;13.10;;;;;;;;;;5025129;28;20470;-70
2021/11/23 06:08:06;;;;;;;24.13;12.93;;;;;;;;;;5023595;28;20176;-71
2021/11/23 06:10:32;;;;;;;23.52;13.38;;;;;;;;;;5026369;28;20026;-71
2021/11/23 06:12:57;;;;;;;27.08;13.63;;;;;;;;;;5029623;28;20392;-72
2021/11/23 06:15:23;;;;;;;24.55;13.27;;;;;;;;;;5035129;28;20143;-70
2021/11/23 06:17:55;;;;;;;24.48;13.25;;;;;;;;;;5030391;28;20022;-70
2021/11/23 06:20:20;;;;;;;25.33;12.68;;;;;;;;;;5025342;28;20029;-70
2021/11/23 06:22:45;;;;;;;24.77;13.23;;;;;;;;;;5030402;28;20018;-71
2021/11/23 06:25:11;;;;;;;22.77;12.63;;;;;;;;;;5024158;28;20025;-71
2021/11/23 06:27:36;;;;;;;24.58;12.63;;;;;;;;;;5023179;28;20022;-71
2021/11/23 06:30:03;;;;;;;23.55;13.18;;;;;;;;;;5028267;28;20392;-71
2021/11/23 06:32:28;;;;;;;22.27;13.18;;;;;;;;;;5029247;28;20124;-71
2021/11/23 06:34:54;;;;;;;23.67;12.85;;;;;;;;;;5024066;28;20116;-71
2021/11/23 06:37:19;;;;;;;24.15;13.45;;;;;;;;;;5023382;28;20018;-69
2021/11/23 06:39:45;;;;;;;22.83;12.43;;;;;;;;;;5017265;28;20032;-70
2021/11/23 06:42:10;;;;;;;22.33;12.50;;;;;;;;;;5029684;28;20021;-70
2021/11/23 06:44:35;;;;;;;23.15;12.65;;;;;;;;;;5030512;28;20034;-70
2021/11/23 06:47:00;;;;;;;24.58;12.38;;;;;;;;;;5028969;28;20029;-71
2021/11/23 06:49:26;;;;;;;23.08;12.27;;;;;;;;;;5026556;28;20306;-70
2021/11/23 06:51:51;;;;;;;22.48;12.80;;;;;;;;;;5023307;28;20029;-70
2021/11/23 06:54:16;;;;;;;25.08;13.07;;;;;;;;;;5028084;28;20029;-69
2021/11/23 06:56:41;;;;;;;23.33;13.30;;;;;;;;;;5029975;28;20064;-70
2021/11/23 06:59:07;;;;;;;27.05;13.98;;;;;;;;;;5029910;28;20033;-70
2021/11/23 07:01:32;;;;;;;24.88;13.35;;;;;;;;;;5036207;28;20441;-71
2021/11/23 07:03:57;;;;;;;24.73;13.57;;;;;;;;;;5030097;28;20501;-70
2021/11/23 07:06:23;;;;;;;23.52;13.13;;;;;;;;;;5029894;28;20076;-69
2021/11/23 07:08:48;;;;;;;24.55;13.00;;;;;;;;;;5028398;28;20030;-69
2021/11/23 07:11:14;;;;;;;23.50;13.40;;;;;;;;;;5030339;28;20040;-70
2021/11/23 07:13:39;;;;;;;26.15;14.02;;;;;;;;;;5029463;28;20053;-70
2021/11/23 07:16:04;;;;;;;24.67;12.80;;;;;;;;;;5029397;28;20461;-70
2021/11/23 07:18:30;;;;;;;26.65;14.60;;;;;;;;;;5026362;28;20032;-69
2021/11/23 07:20:55;;;;;;;25.00;13.45;;;;;;;;;;5024735;28;20100;-66
2021/11/23 07:23:21;;;;;;;26.00;12.73;;;;;;;;;;5028750;28;20362;-66
2021/11/23 07:25:46;;;;;;;27.92;14.70;;;;;;;;;;5028714;28;20370;-68
2021/11/23 07:28:11;;;;;;;23.33;13.52;;;;;;;;;;5027013;28;20427;-64
2021/11/23 07:30:36;;;;;;;25.70;13.63;;;;;;;;;;5022717;28;20549;-64
2021/11/23 07:33:02;;;;;;;29.20;15.05;;;;;;;;;;5023649;28;20508;-63
2021/11/23 07:35:27;;;;;;;27.10;15.38;;;;;;;;;;5028659;28;20120;-64
2021/11/23 07:37:52;;;;;;;27.35;14.38;;;;;;;;;;5024681;28;20030;-64
2021/11/23 07:40:17;;;;;;;28.45;14.65;;;;;;;;;;5028496;28;20017;-63
2021/11/23 07:42:43;;;;;;;29.63;15.82;;;;;;;;;;5028038;28;20492;-64
2021/11/23 07:45:09;;;;;;;28.25;15.82;;;;;;;;;;5029532;28;20025;-62
2021/11/23 07:47:34;;;;;;;27.10;15.18;;;;;;;;;;5029107;28;20870;-64
2021/11/23 07:50:00;;;;;;;27.45;14.55;;;;;;;;;;5029586;28;20076;-63
2021/11/23 07:52:25;;;;;;;26.55;14.43;;;;;;;;;;5025182;28;20477;-62
2021/11/23 07:54:50;;;;;;;28.65;13.98;;;;;;;;;;5025957;28;20043;-63
2021/11/23 07:57:15;;;;;;;27.42;15.05;;;;;;;;;;5023870;28;20045;-64
2021/11/23 07:59:41;;;;;;;27.58;13.65;;;;;;;;;;5026732;28;20033;-62
2021/11/23 08:02:06;;;;;;;27.58;14.98;;;;;;;;;;5023740;28;20450;-62
2021/11/23 08:04:31;;;;;;;26.05;14.07;;;;;;;;;;5028548;28;20036;-63
2021/11/23 08:06:57;;;;;;;25.13;14.48;;;;;;;;;;5019574;28;20064;-64
2021/11/23 08:09:22;;;;;;;28.05;14.52;;;;;;;;;;5026330;28;20037;-64
2021/11/23 08:11:47;;;;;;;26.23;13.85;;;;;;;;;;5023810;28;20021;-64
2021/11/23 08:14:12;;;;;;;28.67;14.77;;;;;;;;;;5018661;28;20025;-64
2021/11/23 08:16:38;;;;;;;25.48;13.93;;;;;;;;;;5026210;28;20496;-64
2021/11/23 08:19:03;;;;;;;32.13;14.52;;;;;;;;;;5025544;28;20032;-64
2021/11/23 08:21:30;;;;;;;26.45;14.73;;;;;;;;;;5028684;28;20060;-64
2021/11/23 08:23:55;;;;;;;27.58;14.43;;;;;;;;;;5026486;28;20025;-63
2021/11/23 08:26:22;;;;;;;24.02;14.15;;;;;;;;;;5029097;28;20025;-64
2021/11/23 08:28:47;;;;;;;27.17;15.20;;;;;;;;;;5028770;28;20086;-64
2021/11/23 08:31:12;;;;;;;27.25;15.05;;;;;;;;;;5027748;28;20112;-63
2021/11/23 08:33:38;;;;;;;26.58;14.88;;;;;;;;;;5025346;28;20034;-64
2021/11/23 08:36:03;;;;;;;28.20;15.23;;;;;;;;;;5028883;28;20033;-63
2021/11/23 08:38:29;;;;;;;26.20;14.23;;;;;;;;;;5026039;28;20010;-64
2021/11/23 08:40:54;;;;;;;26.67;15.32;;;;;;;;;;5028304;28;20016;-64
2021/11/23 08:43:19;;;;;;;27.75;15.10;;;;;;;;;;5028759;28;20056;-63
2021/11/23 08:45:49;;;;;;;26.98;14.70;;;;;;;;;;5027556;28;20047;-64
2021/11/23 08:48:14;;;;;;;25.45;14.63;;;;;;;;;;5028681;28;20397;-63
2021/11/23 08:50:40;;;;;;;26.52;14.88;;;;;;;;;;5028256;28;20048;-64
2021/11/23 08:53:08;;;;;;;27.60;14.88;;;;;;;;;;5028896;28;20028;-63
2021/11/23 08:55:33;;;;;;;27.83;15.20;;;;;;;;;;5026591;28;20100;-64
2021/11/23 08:57:58;;;;;;;26.70;15.32;;;;;;;;;;5028699;28;20600;-64
2021/11/23 09:00:24;;;;;;;25.83;14.85;;;;;;;;;;5026192;28;20059;-64
2021/11/23 09:02:51;;;;;;;29.05;15.00;;;;;;;;;;5028849;28;20431;-64
2021/11/23 09:05:21;;;;;;;29.42;15.73;;;;;;;;;;5028609;28;20033;-63
2021/11/23 09:07:47;;;;;;;25.33;14.55;;;;;;;;;;5028472;28;20111;-63
2021/11/23 09:10:18;;;;;;;25.80;15.18;;;;;;;;;;5032280;28;20041;-63
2021/11/23 09:12:44;;;;;;;26.33;15.05;;;;;;;;;;5032316;28;20017;-63
2021/11/23 09:15:09;;;;;;;25.67;15.38;;;;;;;;;;5031073;28;20093;-63
2021/11/23 09:17:35;;;;;;;24.63;15.10;;;;;;;;;;5030524;28;20136;-64
2021/11/23 09:20:00;;;;;;;24.58;14.95;;;;;;;;;;5032068;28;20022;-63
2021/11/23 09:22:26;;;;;;;23.95;14.63;;;;;;;;;;5032233;28;20054;-63
2021/11/23 09:24:51;;;;;;;24.95;15.35;;;;;;;;;;5031622;28;20022;-63
2021/11/23 09:27:16;;;;;;;28.10;14.70;;;;;;;;;;5031016;28;20022;-63
2021/11/23 09:29:42;;;;;;;23.63;14.55;;;;;;;;;;5032230;28;20103;-63
2021/11/23 09:32:07;;;;;;;23.13;13.98;;;;;;;;;;5034790;28;20018;-63
2021/11/23 09:34:33;;;;;;;23.08;15.32;;;;;;;;;;5027997;28;20062;-65
2021/11/23 09:36:58;;;;;;;23.88;14.93;;;;;;;;;;5027091;28;20017;-63
2021/11/23 09:39:23;;;;;;;23.55;14.93;;;;;;;;;;5028032;28;20022;-63
2021/11/23 09:41:49;;;;;;;23.85;14.30;;;;;;;;;;5031300;28;20017;-63
2021/11/23 09:44:15;;;;;;;24.38;14.55;;;;;;;;;;5026811;28;20033;-63
2021/11/23 09:46:40;;;;;;;22.98;14.32;;;;;;;;;;5031171;28;20026;-63
2021/11/23 09:49:07;;;;;;;26.00;14.52;;;;;;;;;;5029118;28;20116;-63
2021/11/23 09:51:33;;;;;;;22.92;13.77;;;;;;;;;;5024122;28;20053;-64
2021/11/23 09:54:03;;;;;;;24.73;14.93;;;;;;;;;;5029565;28;20606;-64
2021/11/23 09:56:28;;;;;;;26.40;15.48;;;;;;;;;;5025156;28;20052;-63
2021/11/23 09:58:55;;;;;;;23.88;15.25;;;;;;;;;;5030446;28;20049;-64
2021/11/23 10:01:22;;;;;;;25.88;15.57;;;;;;;;;;5032514;28;20052;-63
2021/11/23 10:03:47;;;;;;;27.25;16.05;;;;;;;;;;5031147;28;20133;-63
2021/11/23 10:06:14;;;;;;;24.92;15.85;;;;;;;;;;5027241;28;20105;-63
2021/11/23 10:08:41;;;;;;;27.42;16.20;;;;;;;;;;5029796;28;20017;-63
2021/11/23 10:11:07;;;;;;;24.27;15.18;;;;;;;;;;5034789;28;20055;-63
2021/11/23 10:13:38;;;;;;;25.48;16.02;;;;;;;;;;5036901;28;20092;-64
2021/11/23 10:16:04;;;;;;;27.38;16.00;;;;;;;;;;5027600;28;20022;-64
2021/11/23 10:18:29;;;;;;;25.38;15.77;;;;;;;;;;5023500;28;20571;-63
2021/11/23 10:20:55;;;;;;;25.90;15.77;;;;;;;;;;5028739;28;20021;-63
2021/11/23 10:23:31;;;;;;;26.50;16.40;;;;;;;;;;5027783;28;20029;-63
2021/11/23 10:25:56;;;;;;;26.77;17.00;;;;;;;;;;5021293;28;20418;-63
2021/11/23 10:28:24;;;;;;;25.38;16.33;;;;;;;;;;5030434;28;20030;-63
2021/11/23 10:30:50;;;;;;;25.67;16.55;;;;;;;;;;5026379;28;20129;-63
2021/11/23 10:33:16;;;;;;;26.30;15.73;;;;;;;;;;5023577;28;20100;-64
2021/11/23 10:35:43;;;;;;;23.85;15.65;;;;;;;;;;5030538;28;20030;-62
2021/11/23 10:38:09;;;;;;;26.08;15.98;;;;;;;;;;5030214;28;20053;-64
2021/11/23 10:40:35;;;;;;;26.48;15.23;;;;;;;;;;5030383;28;20063;-63
2021/11/23 10:43:04;;;;;;;25.83;15.85;;;;;;;;;;5029407;28;20022;-63
2021/11/23 10:45:35;;;;;;;24.45;14.98;;;;;;;;;;5027360;28;20022;-63
2021/11/23 10:48:02;;;;;;;24.55;15.93;;;;;;;;;;5030214;28;20032;-63
2021/11/23 10:50:27;;;;;;;26.95;16.20;;;;;;;;;;5029842;28;20169;-63
2021/11/23 10:52:52;;;;;;;24.52;15.18;;;;;;;;;;5026862;28;20098;-63
2021/11/23 10:55:20;;;;;;;25.50;16.50;;;;;;;;;;5028577;28;20155;-63
2021/11/23 10:57:45;;;;;;;27.27;15.85;;;;;;;;;;5030051;28;20025;-64
2021/11/23 11:00:11;;;;;;;24.77;15.48;;;;;;;;;;5030151;28;20381;-64
2021/11/23 11:02:40;;;;;;;24.60;14.73;;;;;;;;;;5028302;28;20028;-62
2021/11/23 11:05:07;;;;;;;23.95;14.68;;;;;;;;;;5029572;28;20024;-63
2021/11/23 11:07:33;;;;;;;24.77;15.90;;;;;;;;;;5026609;28;20049;-62
2021/11/23 11:09:59;;;;;;;26.13;15.50;;;;;;;;;;5029848;28;20311;-62
2021/11/23 11:12:25;;;;;;;23.70;15.27;;;;;;;;;;5029385;28;20040;-63
2021/11/23 11:14:52;;;;;;;22.83;14.23;;;;;;;;;;5025519;28;20580;-62
2021/11/23 11:17:17;;;;;;;28.02;16.83;;;;;;;;;;5030130;28;20017;-63
2021/11/23 11:19:46;;;;;;;23.70;15.27;;;;;;;;;;5029162;28;20397;-63
2021/11/23 11:22:13;;;;;;;24.20;15.30;;;;;;;;;;5029500;28;20387;-63
2021/11/23 11:24:49;;;;;;;24.90;14.75;;;;;;;;;;5028389;28;20044;-63
2021/11/23 11:27:29;;;;;;;22.48;14.73;;;;;;;;;;5027381;28;20045;-64
2021/11/23 11:29:56;;;;;;;18.80;12.85;;;;;;;;;;5030089;28;20530;-64
2021/11/23 11:32:35;;;;;;;23.02;14.68;;;;;;;;;;5031115;28;20541;-63
2021/11/23 11:35:22;;;;;;;24.57;15.83;;;;;;;;;;5024643;28;20029;-63
2021/11/23 11:37:47;;;;;;;24.42;15.65;;;;;;;;;;5027385;28;20312;-63
2021/11/23 11:40:20;;;;;;;22.80;15.68;;;;;;;;;;5029114;28;20482;-63
2021/11/23 11:42:47;;;;;;;25.35;15.30;;;;;;;;;;5029289;28;20057;-63
2021/11/23 11:45:13;;;;;;;23.80;15.88;;;;;;;;;;5025947;28;20095;-64
2021/11/23 11:47:38;;;;;;;25.98;15.65;;;;;;;;;;5028759;28;20629;-64
2021/11/23 11:50:08;;;;;;;20.90;14.20;;;;;;;;;;5027972;28;20041;-63
2021/11/23 11:52:53;;;;;;;22.02;15.05;;;;;;;;;;5029200;28;20350;-64
2021/11/23 11:55:23;;;;;;;21.23;13.98;;;;;;;;;;5022431;28;20026;-63
2021/11/23 11:57:48;;;;;;;;;;;;;;;;;;5018583;28;20040;-62
2021/11/23 12:00:30;;;;;;;22.34;15.10;;;;;;;;;;5031513;28;19921;-63
2021/11/23 12:03:08;;;;;;;22.95;15.52;;;;;;;;;;5024671;28;20037;-64
2021/11/23 12:06:06;;;;;;;22.65;14.10;;;;;;;;;;5022967;28;20020;-63
2021/11/23 12:08:33;;;;;;;21.67;15.38;;;;;;;;;;5028554;28;20037;-63
2021/11/23 12:11:00;;;;;;;25.33;15.27;;;;;;;;;;5029182;28;20159;-64
2021/11/23 12:13:44;;;;;;;22.05;15.07;;;;;;;;;;5027305;28;20053;-64
2021/11/23 12:16:14;;;;;;;19.75;14.30;;;;;;;;;;5022582;28;20036;-63
2021/11/23 12:18:53;;;;;;;236.18;76.63;;;;;;;;;;5027515;28;20556;-64
2021/11/23 12:21:23;;;;;;;233.82;91.25;;;;;;;;;;5028708;28;20036;-64
2021/11/23 12:23:50;;;;;;;;;;;;;;;;;;5025163;28;20056;-63
2021/11/23 12:26:19;;;;;;;22.05;14.13;;;;;;;;;;5041660;28;19909;-63
2021/11/23 12:29:07;;;;;;;19.27;12.55;;;;;;;;;;5028301;28;20032;-64
2021/11/23 12:31:35;;;;;;;19.00;12.85;;;;;;;;;;5005805;28;20026;-64
2021/11/23 12:34:03;;;;;;;17.98;12.90;;;;;;;;;;5008948;28;20040;-62
2021/11/23 12:36:34;;;;;;;18.38;12.55;;;;;;;;;;5005400;28;20030;-63
2021/11/23 12:39:19;;;;;;;18.20;12.60;;;;;;;;;;5005263;28;20056;-62
2021/11/23 12:41:46;;;;;;;19.23;12.43;;;;;;;;;;5005636;28;20629;-63
2021/11/23 12:44:21;;;;;;;16.38;11.95;;;;;;;;;;5006070;28;20026;-64
2021/11/23 12:46:50;;;;;;;17.83;11.90;;;;;;;;;;4997518;28;20446;-63
2021/11/23 12:49:16;;;;;;;18.05;12.77;;;;;;;;;;5000512;28;20064;-63
2021/11/23 12:51:44;;;;;;;16.50;11.65;;;;;;;;;;5005450;28;20025;-64
2021/11/23 12:54:09;;;;;;;16.48;11.95;;;;;;;;;;5006041;28;20028;-64
2021/11/23 12:56:46;;;;;;;17.27;11.75;;;;;;;;;;5000177;28;20026;-63
2021/11/23 12:59:31;;;;;;;15.68;11.35;;;;;;;;;;4998437;28;20037;-63
2021/11/23 13:01:59;;;;;;;15.10;11.30;;;;;;;;;;5002486;28;20545;-64
2021/11/23 13:04:41;;;;;;;19.05;12.15;;;;;;;;;;5006034;28;20501;-64
2021/11/23 13:07:10;;;;;;;19.27;11.68;;;;;;;;;;4993231;28;20430;-64
2021/11/23 13:09:47;;;;;;;15.45;11.38;;;;;;;;;;5020207;28;20042;-64
2021/11/23 13:12:13;;;;;;;15.68;11.38;;;;;;;;;;5028272;28;20025;-64
2021/11/23 13:14:52;;;;;;;17.10;12.35;;;;;;;;;;5028250;28;20061;-63
2021/11/23 13:17:17;;;;;;;16.37;11.53;;;;;;;;;;5026418;28;20021;-63
2021/11/23 13:19:52;;;;;;;18.23;11.70;;;;;;;;;;5023729;28;20278;-64
2021/11/23 13:22:17;;;;;;;17.30;11.23;;;;;;;;;;5028304;28;20061;-64
2021/11/23 13:24:42;;;;;;;16.98;11.95;;;;;;;;;;5028002;28;20049;-63
2021/11/23 13:27:08;;;;;;;19.65;12.75;;;;;;;;;;5027970;28;20017;-64
2021/11/23 13:29:33;;;;;;;21.50;13.15;;;;;;;;;;5027080;28;20037;-63
2021/11/23 13:31:58;;;;;;;19.27;12.52;;;;;;;;;;5032291;28;20025;-62
2021/11/23 13:34:23;;;;;;;17.77;12.23;;;;;;;;;;5027454;28;20036;-63
2021/11/23 13:36:53;;;;;;;18.58;12.07;;;;;;;;;;5027807;28;20025;-63
2021/11/23 13:39:22;;;;;;;17.17;11.40;;;;;;;;;;5026953;28;20026;-63
2021/11/23 13:41:51;;;;;;;18.75;11.90;;;;;;;;;;5027300;28;20040;-64
2021/11/23 13:44:33;;;;;;;18.85;11.93;;;;;;;;;;5027613;28;20534;-64
2021/11/23 13:47:02;;;;;;;17.73;12.18;;;;;;;;;;5027649;28;20060;-63
2021/11/23 13:49:37;;;;;;;17.08;10.93;;;;;;;;;;5026623;28;20033;-63
2021/11/23 13:52:04;;;;;;;16.85;11.30;;;;;;;;;;5022217;28;20056;-62
2021/11/23 13:54:44;;;;;;;17.50;11.55;;;;;;;;;;5030132;28;20105;-62
2021/11/23 13:57:20;;;;;;;17.52;11.75;;;;;;;;;;5028427;28;20033;-63
2021/11/23 13:59:59;;;;;;;15.60;10.77;;;;;;;;;;5030710;28;20209;-63
2021/11/23 14:02:42;;;;;;;16.57;10.70;;;;;;;;;;5027031;28;20051;-63
2021/11/23 14:05:08;;;;;;;15.77;11.13;;;;;;;;;;5021489;28;20017;-62
2021/11/23 14:07:50;;;;;;;17.20;11.27;;;;;;;;;;5027576;28;20442;-64
2021/11/23 14:10:44;;;;;;;18.35;11.82;;;;;;;;;;5030001;28;20040;-64
2021/11/23 14:13:14;;;;;;;16.00;11.18;;;;;;;;;;5044531;28;20036;-63
2021/11/23 14:15:44;;;;;;;17.15;11.27;;;;;;;;;;5047823;28;20508;-63
2021/11/23 14:18:23;;;;;;;16.70;11.15;;;;;;;;;;5048160;28;20103;-63